createdAt,value
2016-11-20T00:00:10.512Z,70.93
2016-11-20T00:00:37.031Z,71.19
2016-11-20T00:00:58.858Z,71.12
2016-11-20T00:01:21.594Z,70.74
2016-11-20T00:01:52.870Z,70.97
2016-11-20T00:02:43.120Z,71.77
2016-11-20T00:03:05.869Z,71.82
2016-11-20T00:03:32.394Z,71.70
2016-11-20T00:03:54.127Z,71.18
2016-11-20T00:04:23.322Z,71.17
2016-11-20T00:04:50.827Z,71.17
2016-11-20T00:05:15.389Z,71.38
2016-11-20T00:05:39.848Z,71.37
2016-11-20T00:06:07.355Z,72.07
2016-11-20T00:06:29.128Z,71.44
2016-11-20T00:06:55.618Z,72.28
2016-11-20T00:07:17.353Z,71.75
2016-11-20T00:07:41.078Z,71.62
2016-11-20T00:08:02.807Z,71.67
2016-11-20T00:08:52.052Z,71.98
2016-11-20T00:09:14.791Z,72.09
2016-11-20T00:10:10.839Z,72.21
2016-11-20T00:10:32.598Z,71.86
2016-11-20T00:10:54.337Z,72.38
2016-11-20T00:11:17.083Z,72.30
2016-11-20T00:11:43.592Z,72.30
2016-11-20T00:12:31.866Z,72.07
2016-11-20T00:12:53.612Z,72.61
2016-11-20T00:13:15.355Z,72.43
2016-11-20T00:14:14.124Z,72.66
2016-11-20T00:14:35.876Z,72.43
2016-11-20T00:16:03.817Z,71.96
2016-11-20T00:16:33.955Z,72.12
2016-11-20T00:16:56.673Z,72.13
2016-11-20T00:17:49.693Z,72.23
2016-11-20T00:18:12.424Z,72.50
2016-11-20T00:18:37.099Z,72.90
2016-11-20T00:19:03.932Z,73.16
2016-11-20T00:19:25.759Z,73.16
2016-11-20T00:19:47.483Z,73.20
2016-11-20T00:20:14.001Z,72.68
2016-11-20T00:20:36.754Z,72.77
2016-11-20T00:20:58.488Z,73.10
2016-11-20T00:21:20.216Z,73.26
2016-11-20T00:22:23.090Z,73.60
2016-11-20T00:22:44.922Z,73.67
2016-11-20T00:23:06.698Z,73.95
2016-11-20T00:23:30.471Z,73.58
2016-11-20T00:23:52.251Z,73.85
2016-11-20T00:24:13.988Z,73.93
2016-11-20T00:24:43.458Z,74.08
2016-11-20T00:25:08.083Z,73.81
2016-11-20T00:26:01.093Z,73.65
2016-11-20T00:26:28.608Z,73.80
2016-11-20T00:27:22.374Z,74.58
2016-11-20T00:28:18.126Z,74.75
2016-11-20T00:28:44.933Z,74.62
2016-11-20T00:29:06.662Z,74.51
2016-11-20T00:29:33.174Z,74.89
2016-11-20T00:29:54.923Z,74.69
2016-11-20T00:30:49.917Z,74.57
2016-11-20T00:31:16.426Z,74.46
2016-11-20T00:31:39.184Z,74.36
2016-11-20T00:32:00.911Z,74.36
2016-11-20T00:32:25.536Z,74.28
2016-11-20T00:32:47.201Z,74.12
2016-11-20T00:33:08.932Z,73.95
2016-11-20T00:33:33.489Z,73.80
2016-11-20T00:34:00.987Z,74.06
2016-11-20T00:34:24.723Z,74.18
2016-11-20T00:34:46.513Z,74.32
2016-11-20T00:35:08.342Z,74.15
2016-11-20T00:35:35.843Z,74.04
2016-11-20T00:35:58.589Z,74.18
2016-11-20T00:36:25.111Z,74.21
2016-11-20T00:36:46.840Z,74.29
2016-11-20T00:37:08.599Z,74.30
2016-11-20T00:37:30.345Z,74.31
2016-11-20T00:37:52.157Z,74.22
2016-11-20T00:38:14.899Z,74.96
2016-11-20T00:38:36.659Z,74.98
2016-11-20T00:38:59.424Z,75.02
2016-11-20T00:39:21.177Z,75.13
2016-11-20T00:39:42.925Z,75.44
2016-11-20T00:40:04.656Z,75.38
2016-11-20T00:40:30.044Z,74.97
2016-11-20T00:40:56.565Z,74.92
2016-11-20T00:41:18.284Z,74.58
2016-11-20T00:41:41.009Z,74.44
2016-11-20T00:42:29.260Z,74.88
2016-11-20T00:43:17.506Z,74.39
2016-11-20T00:44:15.265Z,74.60
2016-11-20T00:45:12.282Z,74.77
2016-11-20T00:45:39.306Z,75.50
2016-11-20T00:46:28.558Z,75.99
2016-11-20T00:46:52.868Z,75.79
2016-11-20T00:47:18.193Z,75.49
2016-11-20T00:47:40.933Z,75.28
2016-11-20T00:48:02.676Z,75.17
2016-11-20T00:48:37.754Z,75.03
2016-11-20T00:49:43.554Z,75.09
2016-11-20T00:50:06.368Z,74.73
2016-11-20T00:50:34.839Z,74.88
2016-11-20T00:51:06.112Z,75.00
2016-11-20T00:51:32.609Z,74.91
2016-11-20T00:52:27.183Z,75.50
2016-11-20T00:52:48.922Z,75.79
2016-11-20T00:53:15.420Z,76.10
2016-11-20T00:54:11.404Z,76.67
2016-11-20T00:54:33.136Z,76.45
2016-11-20T00:54:55.887Z,76.26
2016-11-20T00:55:56.521Z,75.88
2016-11-20T00:56:33.142Z,76.23
2016-11-20T00:57:00.656Z,76.49
2016-11-20T00:58:00.030Z,77.00
2016-11-20T00:58:57.781Z,76.97
2016-11-20T00:59:28.866Z,76.36
2016-11-20T00:59:51.211Z,76.34
2016-11-20T01:00:22.501Z,76.53
2016-11-20T01:01:10.582Z,75.82
2016-11-20T01:01:37.946Z,75.76
2016-11-20T01:02:03.213Z,75.79
2016-11-20T01:02:32.575Z,75.85
2016-11-20T01:02:54.468Z,75.56
2016-11-20T01:03:47.472Z,75.40
2016-11-20T01:04:14.986Z,75.86
2016-11-20T01:04:36.737Z,76.26
2016-11-20T01:05:04.240Z,76.85
2016-11-20T01:05:25.990Z,77.04
2016-11-20T01:05:47.741Z,77.31
2016-11-20T01:06:38.163Z,77.70
2016-11-20T01:07:00.925Z,77.76
2016-11-20T01:07:22.662Z,77.88
2016-11-20T01:07:44.410Z,77.92
2016-11-20T01:08:13.453Z,77.91
2016-11-20T01:08:39.978Z,77.77
2016-11-20T01:09:01.721Z,77.78
2016-11-20T01:09:28.242Z,77.85
2016-11-20T01:09:49.981Z,77.51
2016-11-20T01:10:11.718Z,77.74
2016-11-20T01:10:34.755Z,77.74
2016-11-20T01:11:01.182Z,77.82
2016-11-20T01:11:23.925Z,77.98
2016-11-20T01:11:45.656Z,77.86
2016-11-20T01:12:13.159Z,77.53
2016-11-20T01:12:34.949Z,77.47
2016-11-20T01:13:01.461Z,77.80
2016-11-20T01:13:24.207Z,78.37
2016-11-20T01:13:45.944Z,78.33
2016-11-20T01:14:07.696Z,78.37
2016-11-20T01:15:27.454Z,78.80
2016-11-20T01:15:49.175Z,78.54
2016-11-20T01:16:15.673Z,78.13
2016-11-20T01:16:44.900Z,77.77
2016-11-20T01:17:09.522Z,77.60
2016-11-20T01:17:36.853Z,77.55
2016-11-20T01:19:03.171Z,77.89
2016-11-20T01:19:51.420Z,77.79
2016-11-20T01:20:13.168Z,77.76
2016-11-20T01:21:04.273Z,77.75
2016-11-20T01:21:27.022Z,77.76
2016-11-20T01:21:49.751Z,78.17
2016-11-20T01:22:11.492Z,78.65
2016-11-20T01:22:33.226Z,78.56
2016-11-20T01:22:55.946Z,78.33
2016-11-20T01:23:18.692Z,78.37
2016-11-20T01:23:40.662Z,78.15
2016-11-20T01:24:02.407Z,78.01
2016-11-20T01:24:28.919Z,78.19
2016-11-20T01:25:00.186Z,78.31
2016-11-20T01:26:37.337Z,78.61
2016-11-20T01:27:03.849Z,78.80
2016-11-20T01:27:29.519Z,78.91
2016-11-20T01:27:55.866Z,79.38
2016-11-20T01:28:18.615Z,79.09
2016-11-20T01:28:42.385Z,79.12
2016-11-20T01:29:07.800Z,78.93
2016-11-20T01:29:29.580Z,78.59
2016-11-20T01:29:54.365Z,78.60
2016-11-20T01:30:17.127Z,79.25
2016-11-20T01:30:43.750Z,79.16
2016-11-20T01:31:13.105Z,78.36
2016-11-20T01:31:34.813Z,77.03
2016-11-20T01:32:35.182Z,78.18
2016-11-20T01:32:57.979Z,78.62
2016-11-20T01:33:22.275Z,79.11
2016-11-20T01:34:16.438Z,78.76
2016-11-20T01:35:38.645Z,78.75
2016-11-20T01:36:02.377Z,78.44
2016-11-20T01:36:28.881Z,78.35
2016-11-20T01:36:50.641Z,78.32
2016-11-20T01:37:12.379Z,77.99
2016-11-20T01:38:07.387Z,78.07
2016-11-20T01:39:58.166Z,77.27
2016-11-20T01:40:23.499Z,77.32
2016-11-20T01:40:45.235Z,77.31
2016-11-20T01:41:11.730Z,77.38
2016-11-20T01:41:37.467Z,77.40
2016-11-20T01:42:01.900Z,77.19
2016-11-20T01:42:23.622Z,77.13
2016-11-20T01:43:21.392Z,77.57
2016-11-20T01:43:45.737Z,77.49
2016-11-20T01:44:15.157Z,77.59
2016-11-20T01:44:41.653Z,77.78
2016-11-20T01:45:08.194Z,77.97
2016-11-20T01:45:32.715Z,77.89
2016-11-20T01:46:02.096Z,77.64
2016-11-20T01:46:29.413Z,78.12
2016-11-20T01:47:18.681Z,77.85
2016-11-20T01:47:40.419Z,77.79
2016-11-20T01:48:34.430Z,78.02
2016-11-20T01:48:56.148Z,77.98
2016-11-20T01:49:18.897Z,78.55
2016-11-20T01:49:41.745Z,78.56
2016-11-20T01:50:08.305Z,78.57
2016-11-20T01:50:34.803Z,78.51
2016-11-20T01:51:01.303Z,78.33
2016-11-20T01:51:23.042Z,78.33
2016-11-20T01:51:49.591Z,78.40
2016-11-20T01:52:11.340Z,78.00
2016-11-20T01:52:37.855Z,78.08
2016-11-20T01:52:59.595Z,78.30
2016-11-20T01:53:24.302Z,78.31
2016-11-20T01:53:46.044Z,78.26
2016-11-20T01:54:08.774Z,78.16
2016-11-20T01:55:09.198Z,77.90
2016-11-20T01:55:41.500Z,78.09
2016-11-20T01:56:08.025Z,78.35
2016-11-20T01:56:39.297Z,78.73
2016-11-20T01:57:03.698Z,78.89
2016-11-20T01:57:52.152Z,78.17
2016-11-20T01:58:23.416Z,78.20
2016-11-20T01:58:45.156Z,78.16
2016-11-20T01:59:46.363Z,77.98
2016-11-20T02:00:13.882Z,77.27
2016-11-20T02:00:35.658Z,77.31
2016-11-20T02:01:05.955Z,76.94
2016-11-20T02:01:32.466Z,76.94
2016-11-20T02:02:00.972Z,76.71
2016-11-20T02:02:23.705Z,76.47
2016-11-20T02:02:50.269Z,76.62
2016-11-20T02:03:18.762Z,76.27
2016-11-20T02:03:41.502Z,75.80
2016-11-20T02:04:03.299Z,76.38
2016-11-20T02:04:26.060Z,76.20
2016-11-20T02:04:51.505Z,76.22
2016-11-20T02:05:13.368Z,76.12
2016-11-20T02:05:40.870Z,76.35
2016-11-20T02:06:02.627Z,76.29
2016-11-20T02:06:25.347Z,76.09
2016-11-20T02:06:47.076Z,76.32
2016-11-20T02:07:08.844Z,76.50
2016-11-20T02:07:58.131Z,76.24
2016-11-20T02:08:19.856Z,76.32
2016-11-20T02:08:46.171Z,76.27
2016-11-20T02:09:10.778Z,76.50
2016-11-20T02:09:32.517Z,76.39
2016-11-20T02:09:59.019Z,76.39
2016-11-20T02:10:53.034Z,75.77
2016-11-20T02:11:23.081Z,75.20
2016-11-20T02:11:47.351Z,75.33
2016-11-20T02:12:13.862Z,75.92
2016-11-20T02:12:35.600Z,75.27
2016-11-20T02:12:57.336Z,75.22
2016-11-20T02:13:22.763Z,75.33
2016-11-20T02:14:20.359Z,75.50
2016-11-20T02:14:42.091Z,75.22
2016-11-20T02:15:11.385Z,75.54
2016-11-20T02:15:37.018Z,75.40
2016-11-20T02:15:59.744Z,75.55
2016-11-20T02:16:58.093Z,75.01
2016-11-20T02:17:52.162Z,74.20
2016-11-20T02:18:14.897Z,74.14
2016-11-20T02:18:36.656Z,73.93
2016-11-20T02:19:03.276Z,73.82
2016-11-20T02:19:32.679Z,73.86
2016-11-20T02:19:57.056Z,72.36
2016-11-20T02:20:23.387Z,72.88
2016-11-20T02:20:49.990Z,72.54
2016-11-20T02:21:16.492Z,72.89
2016-11-20T02:21:42.998Z,72.62
2016-11-20T02:22:07.312Z,72.46
2016-11-20T02:22:35.633Z,71.69
2016-11-20T02:24:14.224Z,72.95
2016-11-20T02:24:36.013Z,73.06
2016-11-20T02:25:02.521Z,72.74
2016-11-20T02:25:31.103Z,72.28
2016-11-20T02:25:53.871Z,72.79
2016-11-20T02:26:15.611Z,71.53
2016-11-20T02:26:42.923Z,71.89
2016-11-20T02:27:05.787Z,72.09
2016-11-20T02:27:27.540Z,71.73
2016-11-20T02:27:49.273Z,71.52
2016-11-20T02:28:12.017Z,71.47
2016-11-20T02:28:34.767Z,70.98
2016-11-20T02:28:56.527Z,70.46
2016-11-20T02:29:20.773Z,71.09
2016-11-20T02:30:15.902Z,70.42
2016-11-20T02:30:38.684Z,70.36
2016-11-20T02:31:01.391Z,70.38
2016-11-20T02:32:31.442Z,70.06
2016-11-20T02:32:57.961Z,70.40
2016-11-20T02:33:20.749Z,70.44
2016-11-20T02:33:47.250Z,70.31
2016-11-20T02:34:08.990Z,70.32
2016-11-20T02:34:35.306Z,70.17
2016-11-20T02:35:01.816Z,70.20
2016-11-20T02:35:23.549Z,70.56
2016-11-20T02:35:46.294Z,70.55
2016-11-20T02:36:08.058Z,70.89
2016-11-20T02:36:29.817Z,70.67
2016-11-20T02:36:56.213Z,70.73
2016-11-20T02:37:18.959Z,70.32
2016-11-20T02:37:46.460Z,70.44
2016-11-20T02:38:12.057Z,70.40
2016-11-20T02:38:38.561Z,70.42
2016-11-20T02:39:00.300Z,70.42
2016-11-20T02:39:54.969Z,70.52
2016-11-20T02:40:17.689Z,70.37
2016-11-20T02:41:15.472Z,70.24
2016-11-20T02:41:37.223Z,70.25
2016-11-20T02:42:03.740Z,70.26
2016-11-20T02:42:25.510Z,70.30
2016-11-20T02:42:47.258Z,70.36
2016-11-20T02:43:09.006Z,70.49
2016-11-20T02:43:30.825Z,70.35
2016-11-20T02:43:52.585Z,70.40
2016-11-20T02:44:16.322Z,70.40
2016-11-20T02:44:45.348Z,70.76
2016-11-20T02:45:12.860Z,70.33
2016-11-20T02:46:40.349Z,70.65
2016-11-20T02:47:06.827Z,70.69
2016-11-20T02:47:35.858Z,70.86
2016-11-20T02:48:00.195Z,70.28
2016-11-20T02:48:56.903Z,71.08
2016-11-20T02:49:18.690Z,70.65
2016-11-20T02:49:40.449Z,70.70
2016-11-20T02:50:02.179Z,70.71
2016-11-20T02:50:23.920Z,71.00
2016-11-20T02:51:57.831Z,70.05
2016-11-20T02:52:24.502Z,69.84
2016-11-20T02:52:54.778Z,70.34
2016-11-20T02:53:19.390Z,70.62
2016-11-20T02:53:42.145Z,70.77
2016-11-20T02:54:08.449Z,70.61
2016-11-20T02:55:28.140Z,70.46
2016-11-20T02:56:34.324Z,70.38
2016-11-20T02:56:57.059Z,70.61
2016-11-20T02:57:28.337Z,70.72
2016-11-20T02:57:51.086Z,70.79
2016-11-20T02:59:45.496Z,71.02
2016-11-20T03:00:07.360Z,71.38
2016-11-20T03:00:33.863Z,71.21
2016-11-20T03:01:27.946Z,71.63
2016-11-20T03:01:54.445Z,71.41
2016-11-20T03:02:52.035Z,70.98
2016-11-20T03:03:13.765Z,71.15
2016-11-20T03:03:35.509Z,70.92
2016-11-20T03:04:02.026Z,70.76
2016-11-20T03:04:25.746Z,70.87
2016-11-20T03:05:15.047Z,71.61
2016-11-20T03:05:41.547Z,71.56
2016-11-20T03:06:03.297Z,71.48
2016-11-20T03:06:30.643Z,71.19
2016-11-20T03:06:54.944Z,70.83
2016-11-20T03:08:29.564Z,71.39
2016-11-20T03:08:56.078Z,71.34
2016-11-20T03:09:27.343Z,71.21
2016-11-20T03:10:15.645Z,70.81
2016-11-20T03:11:09.674Z,70.09
2016-11-20T03:11:57.943Z,71.03
2016-11-20T03:12:51.939Z,71.35
2016-11-20T03:13:14.672Z,71.34
2016-11-20T03:13:36.412Z,70.87
2016-11-20T03:14:00.727Z,71.01
2016-11-20T03:14:27.247Z,71.63
2016-11-20T03:15:31.696Z,70.57
2016-11-20T03:15:53.595Z,70.05
2016-11-20T03:16:16.228Z,70.17
2016-11-20T03:16:37.965Z,70.15
2016-11-20T03:16:59.730Z,70.44
2016-11-20T03:17:21.456Z,70.26
2016-11-20T03:18:10.519Z,70.23
2016-11-20T03:18:37.084Z,70.57
2016-11-20T03:18:58.876Z,70.32
2016-11-20T03:19:20.822Z,70.46
2016-11-20T03:19:43.551Z,70.16
2016-11-20T03:20:05.298Z,70.41
2016-11-20T03:20:29.058Z,70.31
2016-11-20T03:20:50.811Z,70.43
2016-11-20T03:21:12.561Z,70.38
2016-11-20T03:21:34.300Z,70.42
2016-11-20T03:21:56.053Z,70.50
2016-11-20T03:22:17.851Z,70.38
2016-11-20T03:22:39.635Z,70.10
2016-11-20T03:23:06.486Z,69.79
2016-11-20T03:23:28.131Z,69.79
2016-11-20T03:23:49.868Z,69.79
2016-11-20T03:24:12.599Z,69.98
2016-11-20T03:24:34.334Z,69.99
2016-11-20T03:25:01.825Z,69.79
2016-11-20T03:25:33.087Z,69.67
2016-11-20T03:25:54.836Z,69.85
2016-11-20T03:26:17.654Z,69.07
2016-11-20T03:26:40.398Z,68.98
2016-11-20T03:27:02.158Z,69.25
2016-11-20T03:27:31.266Z,69.32
2016-11-20T03:27:53.994Z,69.65
2016-11-20T03:28:18.383Z,69.18
2016-11-20T03:28:44.891Z,69.42
2016-11-20T03:29:09.635Z,69.53
2016-11-20T03:29:31.405Z,69.48
2016-11-20T03:29:57.735Z,69.99
2016-11-20T03:30:20.498Z,69.47
2016-11-20T03:30:44.980Z,69.10
2016-11-20T03:31:08.933Z,69.54
2016-11-20T03:31:35.453Z,69.21
2016-11-20T03:32:34.259Z,68.99
2016-11-20T03:32:57.026Z,69.20
2016-11-20T03:34:13.773Z,68.82
2016-11-20T03:34:38.158Z,68.92
2016-11-20T03:35:04.671Z,69.13
2016-11-20T03:35:28.430Z,69.36
2016-11-20T03:35:54.928Z,69.34
2016-11-20T03:36:48.933Z,69.34
2016-11-20T03:37:11.675Z,68.91
2016-11-20T03:37:33.429Z,69.29
2016-11-20T03:38:35.971Z,68.98
2016-11-20T03:39:12.013Z,69.37
2016-11-20T03:39:43.099Z,69.30
2016-11-20T03:40:04.825Z,69.68
2016-11-20T03:40:55.747Z,69.06
2016-11-20T03:41:18.582Z,69.33
2016-11-20T03:41:40.378Z,69.49
2016-11-20T03:42:04.106Z,69.62
2016-11-20T03:42:26.865Z,69.30
2016-11-20T03:42:49.600Z,69.42
2016-11-20T03:43:47.150Z,69.15
2016-11-20T03:44:13.662Z,68.62
2016-11-20T03:44:40.012Z,68.70
2016-11-20T03:45:02.754Z,68.92
2016-11-20T03:45:29.265Z,69.14
2016-11-20T03:46:27.043Z,69.22
2016-11-20T03:46:53.623Z,69.25
2016-11-20T03:47:20.112Z,69.29
2016-11-20T03:47:41.857Z,69.54
2016-11-20T03:48:08.368Z,69.25
2016-11-20T03:48:30.130Z,69.46
2016-11-20T03:48:52.851Z,69.33
2016-11-20T03:49:17.225Z,69.22
2016-11-20T03:49:39.978Z,69.21
2016-11-20T03:50:10.117Z,69.08
2016-11-20T03:50:36.662Z,69.32
2016-11-20T03:50:58.394Z,69.84
2016-11-20T03:51:25.926Z,69.65
2016-11-20T03:52:18.952Z,69.21
2016-11-20T03:52:43.505Z,69.31
2016-11-20T03:53:05.237Z,69.37
2016-11-20T03:53:27.105Z,69.67
2016-11-20T03:53:48.845Z,69.98
2016-11-20T03:55:42.501Z,70.37
2016-11-20T03:56:08.988Z,70.35
2016-11-20T03:56:38.269Z,69.82
2016-11-20T03:57:00.007Z,69.45
2016-11-20T03:57:22.745Z,69.88
2016-11-20T03:57:45.488Z,69.94
2016-11-20T03:58:16.777Z,69.61
2016-11-20T03:58:38.731Z,69.71
2016-11-20T03:59:00.527Z,69.85
2016-11-20T03:59:22.245Z,69.49
2016-11-20T03:59:53.495Z,69.55
2016-11-20T04:00:55.859Z,69.66
2016-11-20T04:01:18.601Z,69.39
2016-11-20T04:02:07.840Z,69.32
2016-11-20T04:02:29.571Z,69.45
2016-11-20T04:02:52.432Z,69.38
2016-11-20T04:03:14.160Z,69.36
2016-11-20T04:04:04.461Z,69.91
2016-11-20T04:04:26.191Z,69.88
2016-11-20T04:04:47.935Z,70.03
2016-11-20T04:05:46.694Z,69.88
2016-11-20T04:06:13.767Z,69.65
2016-11-20T04:06:36.509Z,69.48
2016-11-20T04:06:58.233Z,69.54
2016-11-20T04:07:22.704Z,69.66
2016-11-20T04:07:44.461Z,70.24
2016-11-20T04:08:08.180Z,69.97
2016-11-20T04:08:34.692Z,70.04
2016-11-20T04:09:22.933Z,69.54
2016-11-20T04:09:47.232Z,69.63
2016-11-20T04:10:52.448Z,70.11
2016-11-20T04:11:14.185Z,69.82
2016-11-20T04:11:37.108Z,69.64
2016-11-20T04:12:01.430Z,69.88
2016-11-20T04:12:27.941Z,70.02
2016-11-20T04:12:56.636Z,69.92
2016-11-20T04:13:24.265Z,70.00
2016-11-20T04:13:49.899Z,69.93
2016-11-20T04:14:14.209Z,69.93
2016-11-20T04:15:03.469Z,70.08
2016-11-20T04:15:59.052Z,69.96
2016-11-20T04:16:20.906Z,70.30
2016-11-20T04:16:45.649Z,70.13
2016-11-20T04:17:12.162Z,69.14
2016-11-20T04:17:33.907Z,69.78
2016-11-20T04:17:56.655Z,69.64
2016-11-20T04:18:18.427Z,69.42
2016-11-20T04:18:41.217Z,69.32
2016-11-20T04:19:03.940Z,68.83
2016-11-20T04:19:31.448Z,69.67
2016-11-20T04:19:53.176Z,69.53
2016-11-20T04:20:19.682Z,69.58
2016-11-20T04:20:46.700Z,69.47
2016-11-20T04:21:12.024Z,69.23
2016-11-20T04:21:33.771Z,69.38
2016-11-20T04:21:56.576Z,69.58
2016-11-20T04:22:18.342Z,69.77
2016-11-20T04:22:40.090Z,69.85
2016-11-20T04:23:06.640Z,70.44
2016-11-20T04:25:12.746Z,69.81
2016-11-20T04:25:46.017Z,70.05
2016-11-20T04:26:07.744Z,69.75
2016-11-20T04:26:36.997Z,69.89
2016-11-20T04:27:03.532Z,70.10
2016-11-20T04:27:26.310Z,70.01
2016-11-20T04:27:52.843Z,70.17
2016-11-20T04:28:19.338Z,69.83
2016-11-20T04:28:45.843Z,69.30
2016-11-20T04:29:07.574Z,69.43
2016-11-20T04:29:29.318Z,69.81
2016-11-20T04:29:55.978Z,70.01
2016-11-20T04:30:17.728Z,70.03
2016-11-20T04:30:39.468Z,69.73
2016-11-20T04:31:02.212Z,69.42
2016-11-20T04:31:23.984Z,69.45
2016-11-20T04:31:50.496Z,69.19
2016-11-20T04:32:15.143Z,69.25
2016-11-20T04:32:40.420Z,69.36
2016-11-20T04:33:03.164Z,69.69
2016-11-20T04:33:27.557Z,69.84
2016-11-20T04:33:49.299Z,69.84
2016-11-20T04:34:11.024Z,70.08
2016-11-20T04:34:37.534Z,70.03
2016-11-20T04:35:04.048Z,69.40
2016-11-20T04:35:31.371Z,69.75
2016-11-20T04:35:55.730Z,69.76
2016-11-20T04:36:53.552Z,70.01
2016-11-20T04:37:15.287Z,70.14
2016-11-20T04:37:38.026Z,70.24
2016-11-20T04:38:41.520Z,70.25
2016-11-20T04:39:10.916Z,70.01
2016-11-20T04:42:14.977Z,70.18
2016-11-20T04:42:46.244Z,70.65
2016-11-20T04:43:08.982Z,70.71
2016-11-20T04:43:42.804Z,71.34
2016-11-20T04:44:35.794Z,71.39
2016-11-20T04:45:06.194Z,71.22
2016-11-20T04:46:13.585Z,71.54
2016-11-20T04:46:40.084Z,71.75
2016-11-20T04:47:09.554Z,70.58
2016-11-20T04:47:39.736Z,70.22
2016-11-20T04:48:07.253Z,68.31
2016-11-20T04:50:09.033Z,68.88
2016-11-20T04:50:58.282Z,69.33
2016-11-20T04:51:20.044Z,69.37
2016-11-20T04:52:13.075Z,69.19
2016-11-20T04:53:08.756Z,67.98
2016-11-20T04:54:01.954Z,68.64
2016-11-20T04:54:31.148Z,68.66
2016-11-20T04:54:53.903Z,68.50
2016-11-20T04:55:15.641Z,68.43
2016-11-20T04:55:37.389Z,69.06
2016-11-20T04:56:04.895Z,69.45
2016-11-20T04:57:03.245Z,68.04
2016-11-20T04:58:03.052Z,66.24
2016-11-20T04:58:33.956Z,66.93
2016-11-20T04:58:58.645Z,66.78
2016-11-20T04:59:29.921Z,66.68
2016-11-20T04:59:52.836Z,66.34
2016-11-20T05:00:41.218Z,66.09
2016-11-20T05:01:02.907Z,65.99
2016-11-20T05:01:25.652Z,65.91
2016-11-20T05:02:19.671Z,66.46
2016-11-20T05:02:43.411Z,66.25
2016-11-20T05:03:10.901Z,66.18
2016-11-20T05:03:35.557Z,66.06
2016-11-20T05:04:03.085Z,66.59
2016-11-20T05:04:35.365Z,66.79
2016-11-20T05:04:57.148Z,66.71
2016-11-20T05:05:19.897Z,67.16
2016-11-20T05:05:42.640Z,67.01
2016-11-20T05:06:05.385Z,67.56
2016-11-20T05:06:31.055Z,67.42
2016-11-20T05:06:56.804Z,68.04
2016-11-20T05:07:28.077Z,67.89
2016-11-20T05:07:54.575Z,67.20
2016-11-20T05:08:21.078Z,67.47
2016-11-20T05:08:42.828Z,65.06
2016-11-20T05:09:07.546Z,64.68
2016-11-20T05:09:31.913Z,64.56
2016-11-20T05:09:54.661Z,64.64
2016-11-20T05:10:16.457Z,65.02
2016-11-20T05:10:45.690Z,65.45
2016-11-20T05:11:39.498Z,66.67
2016-11-20T05:12:03.956Z,67.28
2016-11-20T05:12:26.748Z,68.25
2016-11-20T05:13:15.012Z,66.79
2016-11-20T05:13:41.498Z,66.57
2016-11-20T05:14:35.304Z,66.83
2016-11-20T05:14:58.048Z,66.90
2016-11-20T05:15:22.707Z,67.15
2016-11-20T05:16:11.970Z,66.89
2016-11-20T05:16:38.530Z,67.32
2016-11-20T05:17:08.698Z,66.82
2016-11-20T05:17:35.213Z,66.52
2016-11-20T05:18:00.902Z,66.64
2016-11-20T05:19:05.459Z,66.90
2016-11-20T05:19:53.716Z,67.26
2016-11-20T05:20:15.477Z,67.69
2016-11-20T05:20:38.211Z,67.87
2016-11-20T05:21:02.882Z,67.36
2016-11-20T05:21:24.655Z,67.63
2016-11-20T05:22:21.533Z,67.59
2016-11-20T05:22:51.927Z,67.09
2016-11-20T05:23:49.497Z,67.19
2016-11-20T05:25:05.217Z,66.13
2016-11-20T05:25:35.408Z,66.20
2016-11-20T05:26:42.042Z,63.89
2016-11-20T05:27:03.784Z,64.15
2016-11-20T05:27:25.599Z,64.09
2016-11-20T05:27:48.357Z,64.09
2016-11-20T05:28:15.489Z,64.70
2016-11-20T05:28:44.350Z,64.53
2016-11-20T05:29:45.848Z,64.32
2016-11-20T05:30:18.094Z,64.79
2016-11-20T05:30:49.368Z,64.90
2016-11-20T05:31:12.416Z,65.14
2016-11-20T05:31:34.224Z,65.29
2016-11-20T05:32:00.724Z,65.24
2016-11-20T05:32:22.489Z,64.97
2016-11-20T05:32:48.988Z,64.28
2016-11-20T05:33:16.502Z,64.60
2016-11-20T05:34:18.917Z,63.68
2016-11-20T05:34:43.990Z,63.81
2016-11-20T05:35:05.818Z,63.78
2016-11-20T05:35:30.182Z,64.44
2016-11-20T05:35:51.939Z,64.47
2016-11-20T05:36:16.407Z,63.82
2016-11-20T05:36:39.127Z,63.71
2016-11-20T05:37:05.635Z,63.49
2016-11-20T05:37:30.372Z,64.05
2016-11-20T05:38:01.650Z,63.90
2016-11-20T05:38:28.661Z,63.74
2016-11-20T05:38:55.155Z,64.13
2016-11-20T05:39:18.880Z,63.87
2016-11-20T05:39:43.626Z,64.59
2016-11-20T05:40:05.362Z,64.61
2016-11-20T05:40:27.182Z,63.20
2016-11-20T05:40:53.704Z,63.88
2016-11-20T05:41:15.429Z,63.79
2016-11-20T05:41:38.194Z,64.39
2016-11-20T05:41:59.946Z,64.06
2016-11-20T05:42:22.700Z,63.81
2016-11-20T05:42:45.459Z,63.78
2016-11-20T05:43:12.010Z,63.92
2016-11-20T05:43:38.522Z,63.86
2016-11-20T05:44:05.035Z,63.94
2016-11-20T05:44:36.302Z,64.53
2016-11-20T05:46:20.146Z,63.89
2016-11-20T05:46:47.470Z,63.58
2016-11-20T05:47:23.332Z,63.65
2016-11-20T05:47:45.286Z,62.78
2016-11-20T05:48:07.022Z,62.74
2016-11-20T05:48:29.863Z,62.69
2016-11-20T05:48:51.608Z,62.97
2016-11-20T05:49:13.366Z,62.99
2016-11-20T05:50:08.448Z,62.15
2016-11-20T05:50:38.535Z,62.19
2016-11-20T05:51:00.295Z,62.25
2016-11-20T05:51:22.041Z,62.26
2016-11-20T05:51:43.773Z,62.06
2016-11-20T05:52:50.093Z,61.75
2016-11-20T05:53:24.024Z,62.06
2016-11-20T05:54:31.353Z,62.05
2016-11-20T05:55:02.202Z,62.27
2016-11-20T05:55:23.948Z,62.61
2016-11-20T05:55:46.765Z,62.89
2016-11-20T05:56:49.147Z,62.65
2016-11-20T05:57:18.174Z,62.12
2016-11-20T05:57:40.925Z,61.58
2016-11-20T05:58:36.516Z,61.32
2016-11-20T05:59:00.261Z,61.52
2016-11-20T05:59:22.023Z,61.70
2016-11-20T05:59:51.063Z,61.45
2016-11-20T06:00:13.057Z,61.50
2016-11-20T06:01:03.570Z,61.11
2016-11-20T06:02:32.459Z,61.43
2016-11-20T06:02:58.969Z,61.47
2016-11-20T06:03:21.698Z,61.76
2016-11-20T06:03:43.442Z,61.64
2016-11-20T06:04:05.628Z,61.74
2016-11-20T06:04:27.611Z,61.29
2016-11-20T06:04:49.338Z,61.67
2016-11-20T06:05:12.066Z,61.42
2016-11-20T06:05:41.204Z,61.30
2016-11-20T06:06:12.520Z,61.29
2016-11-20T06:07:09.299Z,61.43
2016-11-20T06:07:35.152Z,61.58
2016-11-20T06:08:05.555Z,61.90
2016-11-20T06:08:37.793Z,61.76
2016-11-20T06:09:10.071Z,61.72
2016-11-20T06:09:32.887Z,61.95
2016-11-20T06:10:05.162Z,61.93
2016-11-20T06:10:31.733Z,62.32
2016-11-20T06:10:56.242Z,62.09
2016-11-20T06:12:57.398Z,61.73
2016-11-20T06:15:11.895Z,61.49
2016-11-20T06:15:59.470Z,61.49
2016-11-20T06:35:08.837Z,60.29
2016-11-20T06:35:38.052Z,60.47
2016-11-20T06:35:59.794Z,60.75
2016-11-20T06:36:21.528Z,60.99
2016-11-20T06:36:43.272Z,61.31
2016-11-20T06:37:14.542Z,60.92
2016-11-20T06:37:46.314Z,60.81
2016-11-20T06:38:49.498Z,60.52
2016-11-20T06:39:15.906Z,60.73
2016-11-20T06:39:43.515Z,60.33
2016-11-20T06:40:08.096Z,61.00
2016-11-20T06:40:34.605Z,61.03
2016-11-20T06:41:05.880Z,61.13
2016-11-20T06:41:29.601Z,61.11
2016-11-20T06:41:51.340Z,61.54
2016-11-20T06:42:18.851Z,61.44
2016-11-20T06:42:54.885Z,61.02
2016-11-20T06:43:21.398Z,60.74
2016-11-20T06:44:15.399Z,61.24
2016-11-20T06:44:38.135Z,61.61
2016-11-20T06:45:02.534Z,61.38
2016-11-20T06:45:25.259Z,61.25
2016-11-20T06:45:52.750Z,61.88
2016-11-20T06:46:19.268Z,61.21
2016-11-20T06:46:41.001Z,61.67
2016-11-20T06:47:02.730Z,61.74
2016-11-20T06:47:24.460Z,61.88
2016-11-20T06:47:46.197Z,61.29
2016-11-20T06:48:07.903Z,61.00
2016-11-20T06:48:29.631Z,60.52
2016-11-20T06:48:51.349Z,61.24
2016-11-20T06:49:13.083Z,61.47
2016-11-20T06:49:34.807Z,61.95
2016-11-20T06:49:56.528Z,61.47
2016-11-20T06:50:18.258Z,61.54
2016-11-20T06:50:40.989Z,61.60
2016-11-20T06:51:03.720Z,61.36
2016-11-20T06:51:25.443Z,60.97
2016-11-20T06:51:47.179Z,61.19
2016-11-20T06:52:08.909Z,61.54
2016-11-20T06:52:31.640Z,61.80
2016-11-20T06:52:53.383Z,61.69
2016-11-20T06:53:15.104Z,61.58
2016-11-20T06:53:37.835Z,61.59
2016-11-20T06:54:08.249Z,61.46
2016-11-20T06:54:29.985Z,61.28
2016-11-20T06:54:51.718Z,61.27
2016-11-20T06:55:13.447Z,62.42
2016-11-20T06:55:35.182Z,62.06
2016-11-20T06:55:56.902Z,62.10
2016-11-20T06:56:18.631Z,61.93
2016-11-20T06:56:40.356Z,61.33
2016-11-20T06:57:02.081Z,60.86
2016-11-20T06:57:23.825Z,60.68
2016-11-20T06:57:45.612Z,60.38